Terminal Aerodrome Forecast
Issued by NWS

Home | Current Version | Previous Version | Text Only | Print | Product List | Glossary On
Versions: 1 2 3 4 5 6 7 8 9 10 11 12 13 14
000
FTUS42 TJSJ 011129
TAFKPK
TAF
TKPK 011129Z 0112/0212 07015KT P6SM VCSH SCT017 SCT080
     FM011300 07018G24KT P6SM VCSH SCT020 SCT030 BKN070
     FM012230 07011KT P6SM SCT018 SCT030=

USA.gov is the U.S. government's official web portal to all federal, state and local government web resources and services.